Data for 04/04/2016

Time Sea-Level Adjusted Pressure Absolute Pressure Temperature Relative Humidity Dew Point   
(mb) (inHg) (mb) (inHg) (C) (F) (%) (C) (F)
00:05 1020 30.12 849 25.07 7.4 45.3 47 -3.2 26.3
00:10 1020 30.12 849 25.07 7 44.5 48 -3.3 26
00:15 1020 30.12 849 25.07 7 44.7 48 -3.3 26.1
00:20 1020 30.12 849 25.07 6.9 44.5 49 -3.1 26.3
00:25 1020 30.12 849 25.07 6.7 44 49 -3.4 26
00:30 1020 30.12 849 25.07 6.8 44.2 48 -3.5 25.6
00:35 1020 30.12 849 25.07 6.7 44.1 49 -3.2 26.2
00:40 1020 30.12 849 25.07 6.6 43.9 49 -3.5 25.8
00:45 1020 30.12 849 25.07 6.5 43.8 48 -3.6 25.6
00:50 1020 30.12 849 25.07 6.6 43.9 48 -3.5 25.6
00:55 1020 30.12 849 25.07 6.6 43.8 49 -3.5 25.7
01:00 1020 30.12 849 25.07 6.6 43.8 47 -3.9 25
01:05 1020 30.12 849 25.07 6.9 44.5 46 -4 24.8
01:10 1020 30.12 849 25.07 7.1 44.7 47 -3.4 25.8
01:15 1020 30.12 849 25.07 6.8 44.2 47 -3.6 25.5
01:20 1020 30.12 849 25.07 6.8 44.2 48 -3.4 25.9
01:25 1020 30.12 849 25.07 6.6 43.9 47 -3.8 25.2
01:30 1020 30.12 849 25.07 6.9 44.4 47 -3.6 25.5
01:35 1020 30.12 849 25.07 6.9 44.4 47 -3.6 25.6
01:40 1020 30.12 849 25.07 6.8 44.2 48 -3.5 25.7
01:45 1020 30.12 849 25.07 6.6 44 48 -3.4 25.8
01:50 1020 30.12 849 25.07 6.4 43.5 49 -3.5 25.7
01:55 1020 30.12 849 25.07 6.3 43.3 49 -3.5 25.7
02:00 1020 30.12 849 25.07 6.2 43.2 50 -3.5 25.6
02:05 1020 30.12 849 25.07 6.2 43.1 50 -3.6 25.6
02:10 1019 30.09 849 25.07 6.2 43.1 50 -3.6 25.5
02:15 1019 30.09 849 25.07 6.2 43.2 50 -3.5 25.7
02:20 1019 30.09 849 25.07 6.2 43.2 49 -3.6 25.4
02:25 1019 30.09 849 25.07 6.6 43.8 48 -3.7 25.3
02:30 1019 30.09 848 25.04 6.6 43.8 49 -3.4 25.8
02:35 1019 30.09 848 25.04 6.3 43.4 50 -3.4 25.9
02:40 1019 30.09 848 25.04 6.1 42.9 51 -3.3 26.1
02:45 1019 30.09 848 25.04 6 42.7 51 -3.3 26.1
02:50 1019 30.09 848 25.04 6 42.8 51 -3.3 26
02:55 1019 30.09 848 25.04 6.1 43 51 -3.3 26.1
03:00 1019 30.09 848 25.04 6.1 43 51 -3.2 26.2
03:05 1019 30.09 848 25.04 6.2 43.1 51 -3.3 26.1
03:10 1019 30.09 848 25.04 6.2 43.1 51 -3.3 26.1
03:15 1019 30.09 848 25.04 6.2 43.2 51 -3.3 26.1
03:20 1019 30.09 848 25.04 6.3 43.3 50 -3.3 26.1
03:25 1019 30.09 848 25.04 6.3 43.3 50 -3.3 26
03:30 1019 30.09 848 25.04 6.4 43.5 50 -3.3 26.1
03:35 1019 30.09 848 25.04 6.4 43.5 50 -3.3 26.1
03:40 1019 30.09 848 25.04 6.4 43.5 50 -3.3 26
03:45 1019 30.09 848 25.04 6.5 43.8 49 -3.4 25.8
03:50 1019 30.09 848 25.04 6.6 43.9 50 -3.1 26.4
03:55 1019 30.09 848 25.04 6.4 43.5 50 -3.2 26.3
04:00 1019 30.09 848 25.04 6.3 43.3 50 -3.3 26.1
04:05 1019 30.09 848 25.04 6.4 43.6 50 -3.3 26.1
04:10 1019 30.09 848 25.04 6.5 43.7 50 -3.1 26.4
04:15 1019 30.09 848 25.04 6.6 43.9 50 -3.1 26.4
04:20 1019 30.09 848 25.04 6.8 44.2 50 -2.9 26.7
04:25 1019 30.09 848 25.04 6.7 44 50 -2.9 26.8
04:30 1019 30.09 848 25.04 6.4 43.6 52 -2.8 26.9
04:35 1019 30.09 848 25.04 6.3 43.3 52 -2.8 27
04:40 1019 30.09 848 25.04 6.1 43 54 -2.6 27.3
04:45 1019 30.09 848 25.04 5.9 42.7 54 -2.7 27.1
04:50 1019 30.09 848 25.04 5.9 42.6 55 -2.5 27.5
04:55 1019 30.09 848 25.04 5.7 42.2 55 -2.5 27.4
05:00 1019 30.09 848 25.04 5.6 42.2 55 -2.6 27.3
05:05 1019 30.09 848 25.04 5.8 42.5 55 -2.6 27.3
05:10 1019 30.09 848 25.04 6.1 43 54 -2.5 27.6
05:15 1019 30.09 848 25.04 6.1 43 55 -2.4 27.8
05:20 1019 30.09 848 25.04 6.1 42.9 55 -2.3 27.9
05:25 1019 30.09 848 25.04 6.1 42.9 56 -2.1 28.2
05:30 1019 30.09 848 25.04 5.8 42.5 57 -2.1 28.2
05:35 1019 30.09 848 25.04 5.9 42.6 56 -2.1 28.2
05:40 1019 30.09 848 25.04 6 42.8 56 -2.1 28.3
05:45 1019 30.09 848 25.04 6.1 43.1 56 -2 28.4
05:50 1019 30.09 848 25.04 6.2 43.2 55 -2.1 28.2
05:55 1019 30.09 848 25.04 6.6 43.9 55 -1.9 28.6
06:00 1019 30.09 848 25.04 6.5 43.8 55 -1.8 28.8
06:05 1019 30.09 848 25.04 6.4 43.5 56 -1.8 28.8
06:10 1019 30.09 848 25.04 6.2 43.1 57 -1.8 28.8
06:15 1019 30.09 848 25.04 6.2 43.1 56 -1.9 28.5
06:20 1019 30.09 848 25.04 6.2 43.2 57 -1.8 28.8
06:25 1019 30.09 848 25.04 5.9 42.7 57 -1.9 28.6
06:30 1019 30.09 848 25.04 5.8 42.4 57 -2 28.4
06:35 1019 30.09 848 25.04 5.8 42.5 57 -2 28.5
06:40 1019 30.09 848 25.04 6.1 42.9 56 -2.1 28.3
06:45 1019 30.09 848 25.04 6.3 43.4 55 -2 28.3
06:50 1019 30.09 848 25.04 6.5 43.8 55 -2 28.5
06:55 1019 30.09 848 25.04 6.8 44.2 54 -2 28.4
07:00 1019 30.09 848 25.04 7 44.6 53 -1.8 28.7
07:05 1019 30.09 848 25.04 7.2 44.9 53 -1.7 28.9
07:10 1019 30.09 848 25.04 7.5 45.5 52 -1.8 28.7
07:15 1019 30.09 848 25.04 7.6 45.6 52 -1.7 29
07:20 1019 30.09 848 25.04 7.5 45.6 52 -1.6 29.1
07:25 1019 30.09 848 25.04 7.8 46 52 -1.3 29.7
07:30 1019 30.09 848 25.04 8.2 46.8 51 -1.3 29.7
07:35 1019 30.09 848 25.04 8.8 47.9 50 -1 30.2
07:40 1019 30.09 848 25.04 9.1 48.3 49 -1 30.2
07:45 1019 30.09 848 25.04 9.5 49 48 -1.1 30.1
07:50 1019 30.09 848 25.04 9.7 49.4 48 -0.7 30.7
07:55 1019 30.09 848 25.04 10.2 50.3 46 -0.8 30.5
08:00 1018 30.06 848 25.04 10.5 50.9 46 -0.7 30.8
08:05 1018 30.06 848 25.04 10.4 50.7 46 -0.5 31.1
08:10 1018 30.06 848 25.04 10.5 50.8 47 -0.4 31.3
08:15 1018 30.06 847 25.01 10.7 51.3 46 -0.5 31.1
08:20 1018 30.06 847 25.01 11.5 52.7 43 -0.5 31
08:25 1018 30.06 847 25.01 11.8 53.3 42 -0.7 30.7
08:30 1018 30.06 847 25.01 12.2 53.9 41 -0.5 31.1
08:35 1018 30.06 847 25.01 12.8 55 40 -0.6 31
08:40 1018 30.06 847 25.01 13.3 55.9 37 -0.9 30.5
08:45 1018 30.06 847 25.01 13.7 56.7 37 -0.7 30.8
08:50 1018 30.06 847 25.01 14.2 57.6 35 -1.1 30.1
08:55 1018 30.06 847 25.01 14.6 58.4 34 -0.9 30.3
09:00 1018 30.06 847 25.01 15 59 34 -0.8 30.6
09:05 1018 30.06 847 25.01 15.4 59.7 32 -1.2 29.8
09:10 1018 30.06 847 25.01 15.7 60.2 31 -1.4 29.5
09:15 1018 30.06 847 25.01 15.7 60.3 31 -1.1 30
09:20 1017 30.03 847 25.01 15.9 60.7 32 -0.8 30.5
09:25 1017 30.03 847 25.01 15.6 60.1 32 -0.9 30.3
09:30 1017 30.03 847 25.01 16.3 61.3 30 -1 30.2
09:35 1017 30.03 847 25.01 16.9 62.4 30 -0.9 30.5
09:40 1017 30.03 847 25.01 16.1 61 31 -0.9 30.4
09:45 1017 30.03 846 24.98 16.6 61.8 29 -1.6 29.2
09:50 1017 30.03 846 24.98 16.9 62.4 29 -0.9 30.4
09:55 1017 30.03 846 24.98 17 62.6 29 -0.9 30.4
10:00 1017 30.03 846 24.98 17.3 63.1 28 -1.2 29.9
10:05 1017 30.03 846 24.98 17.8 64.1 28 -1 30.2
10:10 1017 30.03 846 24.98 17.9 64.1 26 -1.9 28.5
10:15 1017 30.03 846 24.98 18.1 64.5 25 -2.2 28
10:20 1017 30.03 846 24.98 18.5 65.3 25 -1.8 28.8
10:25 1017 30.03 846 24.98 17.8 64.1 24 -2.8 27
10:30 1017 30.03 846 24.98 17.8 64.1 25 -2.6 27.4
10:35 1017 30.03 846 24.98 18 64.4 25 -2.4 27.7
10:40 1017 30.03 846 24.98 17.6 63.7 25 -2.8 27
10:45 1017 30.03 846 24.98 18.3 65 22 -3.4 25.9
10:50 1017 30.03 846 24.98 18.4 65.1 23 -3.2 26.3
10:55 1017 30.03 846 24.98 19.1 66.4 20 -4.4 24.1
11:00 1016 30 846 24.98 19.8 67.7 19 -4.2 24.4
11:05 1016 30 846 24.98 19.3 66.7 21 -3.7 25.3
11:10 1016 30 846 24.98 18.6 65.5 19 -5.6 22
11:15 1016 30 845 24.95 18.2 64.8 18 -6.2 20.9
11:20 1016 30 845 24.95 18 64.5 18 -6.4 20.4
11:25 1016 30 845 24.95 17.8 64 19 -6.2 20.8
11:30 1016 30 845 24.95 17.9 64.2 18 -6.5 20.3
11:35 1016 30 845 24.95 18.2 64.7 18 -6.6 20.1
11:40 1016 30 845 24.95 18.1 64.6 20 -5.4 22.3
11:45 1016 30 845 24.95 17.9 64.3 19 -5.8 21.5
11:50 1016 30 845 24.95 18 64.5 20 -5.2 22.6
11:55 1016 30 845 24.95 18.4 65 19 -5.5 22.2
12:00 1016 30 845 24.95 18.1 64.6 19 -5.9 21.4
12:05 1015 29.97 845 24.95 18 64.5 19 -5.9 21.3
12:10 1015 29.97 845 24.95 18.2 64.7 19 -5.5 22.1
12:15 1015 29.97 844 24.92 18.3 64.9 19 -5.6 22
12:20 1015 29.97 844 24.92 18.3 64.9 19 -5.4 22.3
12:25 1015 29.97 844 24.92 18.2 64.8 19 -5.4 22.4
12:30 1015 29.97 844 24.92 18.2 64.7 21 -4.7 23.6
12:35 1015 29.97 844 24.92 18.1 64.5 22 -3.9 24.9
12:40 1015 29.97 844 24.92 18.4 65.2 21 -4.1 24.7
12:45 1015 29.97 844 24.92 18.9 66 19 -4.9 23.2
12:50 1015 29.97 844 24.92 18.7 65.7 19 -5.1 22.8
12:55 1014 29.94 844 24.92 18.6 65.5 19 -5.4 22.2
13:00 1014 29.94 844 24.92 18.1 64.6 23 -3.3 26.1
13:05 1014 29.94 844 24.92 17.8 64 24 -3.1 26.5
13:10 1014 29.94 844 24.92 17.6 63.7 24 -3 26.6
13:15 1014 29.94 844 24.92 17.7 63.8 24 -2.8 27
13:20 1014 29.94 844 24.92 17.5 63.5 25 -2.7 27.2
13:25 1014 29.94 844 24.92 17.6 63.6 25 -2.5 27.4
13:30 1014 29.94 844 24.92 17.3 63.2 26 -2.4 27.6
13:35 1014 29.94 844 24.92 17.3 63.1 25 -3 26.5
13:40 1014 29.94 844 24.92 16.8 62.3 26 -2.7 27.2
13:45 1015 29.97 844 24.92 16.6 61.8 27 -2.6 27.4
13:50 1015 29.97 844 24.92 16.4 61.6 27 -2.6 27.3
13:55 1015 29.97 844 24.92 16.1 61 28 -2.4 27.7
14:00 1015 29.97 844 24.92 15.9 60.7 28 -2.6 27.3
14:05 1015 29.97 844 24.92 15.8 60.5 29 -1.8 28.7
14:10 1015 29.97 844 24.92 15.6 60 31 -1.4 29.5
14:15 1015 29.97 844 24.92 15.5 59.9 31 -1.3 29.7
14:20 1015 29.97 844 24.92 15.3 59.6 33 -0.7 30.8
14:25 1016 30 845 24.95 14 57.3 48 3.3 37.9
14:30 1016 30 845 24.95 12.2 53.9 51 2.5 36.5
14:35 1016 30 845 24.95 11.5 52.6 54 2.4 36.3
14:40 1016 30 845 24.95 10.8 51.5 56 2.5 36.5
14:45 1016 30 845 24.95 10.2 50.4 58 2.4 36.4
14:50 1016 30 845 24.95 10.1 50.1 58 2.3 36.1
14:55 1016 30 845 24.95 9.7 49.4 60 2.4 36.3
15:00 1016 30 846 24.98 9.3 48.7 62 2.5 36.4
15:05 1017 30.03 846 24.98 8.9 47.9 70 3.7 38.7
15:10 1017 30.03 846 24.98 8.1 46.5 75 4 39.2
15:15 1017 30.03 846 24.98 7.2 45 79 3.8 38.9
15:20 1017 30.03 846 24.98 6.7 44.1 83 4 39.2
15:25 1017 30.03 846 24.98 6.6 43.9 77 3 37.3
15:30 1017 30.03 846 24.98 6.7 44.1 74 2.4 36.3
15:35 1017 30.03 846 24.98 6.6 43.8 75 2.5 36.4
15:40 1016 30 846 24.98 6.7 44.1 76 2.7 36.9
15:45 1016 30 845 24.95 7.1 44.8 76 3.2 37.7
15:50 1016 30 845 24.95 7.3 45.1 76 3.4 38.2
15:55 1015 29.97 844 24.92 7.3 45.1 74 3 37.4
16:00 1015 29.97 844 24.92 7.3 45.2 73 2.8 37
16:05 1015 29.97 844 24.92 7.7 45.9 73 3.3 37.9
16:10 1015 29.97 844 24.92 7.8 46 74 3.4 38.1
16:15 1015 29.97 844 24.92 7.6 45.8 71 2.6 36.8
16:20 1015 29.97 844 24.92 8 46.5 71 3 37.5
16:25 1015 29.97 844 24.92 8.2 46.7 70 3.1 37.6
16:30 1015 29.97 844 24.92 8.3 46.9 67 2.6 36.7
16:35 1015 29.97 844 24.92 8.6 47.5 67 2.9 37.2
16:40 1015 29.97 844 24.92 8.8 47.8 66 2.9 37.1
16:45 1015 29.97 844 24.92 9.1 48.5 64 2.7 36.9
16:50 1015 29.97 844 24.92 9.8 49.7 60 2.3 36.2
16:55 1015 29.97 844 24.92 10.8 51.4 55 2.1 35.9
17:00 1014 29.94 844 24.92 11.5 52.8 53 2.4 36.3
17:05 1015 29.97 844 24.92 12.3 54.1 46 1.1 34
17:10 1015 29.97 844 24.92 12.1 53.9 54 3.1 37.6
17:15 1015 29.97 844 24.92 12.1 53.8 53 2.9 37.2
17:20 1015 29.97 844 24.92 11.6 52.8 57 3.4 38.1
17:25 1015 29.97 844 24.92 11 51.8 57 3 37.4
17:30 1014 29.94 844 24.92 10.9 51.6 56 2.4 36.3
17:35 1014 29.94 844 24.92 10.9 51.6 57 2.8 37
17:40 1014 29.94 844 24.92 11 51.8 55 2.4 36.4
17:45 1014 29.94 843 24.89 11.1 52 56 2.7 36.9
17:50 1014 29.94 843 24.89 11.2 52.1 55 2.6 36.6
17:55 1014 29.94 843 24.89 11.4 52.4 56 3 37.3
18:00 1014 29.94 843 24.89 11.2 52.2 57 3.1 37.5
18:05 1014 29.94 844 24.92 10.8 51.4 57 2.7 36.9
18:10 1015 29.97 844 24.92 9.7 49.5 58 2 35.5
18:15 1015 29.97 844 24.92 8.8 47.9 61 1.7 35.1
18:20 1015 29.97 845 24.95 8.1 46.6 64 1.6 34.9
18:25 1016 30 845 24.95 5.7 42.2 75 1.7 35
18:30 1017 30.03 846 24.98 4.5 40.1 82 1.6 35
18:35 1017 30.03 846 24.98 3.8 38.9 85 1.6 34.9
18:40 1017 30.03 847 25.01 3.3 38 86 1.3 34.3
18:45 1018 30.06 847 25.01 2.9 37.2 88 1.1 34
18:50 1018 30.06 847 25.01 2.3 36.2 89 0.8 33.4
18:55 1018 30.06 848 25.04 2 35.7 89 0.5 32.8
19:00 1018 30.06 848 25.04 1.6 34.9 90 0.1 32.3
19:05 1018 30.06 848 25.04 1.2 34.1 91 -0.1 31.8
19:10 1019 30.09 848 25.04 1.1 34 92 -0.1 31.8
19:15 1019 30.09 848 25.04 1.2 34.1 92 0 32
19:20 1019 30.09 848 25.04 1.2 34.2 92 0.1 32.1
19:25 1019 30.09 848 25.04 1.3 34.3 92 0.1 32.3
19:30 1019 30.09 848 25.04 1.4 34.5 92 0.3 32.5
19:35 1019 30.09 848 25.04 1.5 34.6 92 0.3 32.6
19:40 1019 30.09 849 25.07 1.5 34.8 92 0.4 32.7
19:45 1019 30.09 849 25.07 1.6 34.9 92 0.5 32.8
19:50 1019 30.09 849 25.07 1.6 34.9 91 0.4 32.7
19:55 1019 30.09 849 25.07 1.5 34.6 91 0.2 32.4
20:00 1019 30.09 849 25.07 1.4 34.5 92 0.2 32.4
20:05 1019 30.09 849 25.07 1.4 34.6 92 0.3 32.6
20:10 1019 30.09 849 25.07 1.6 34.8 92 0.3 32.6
20:15 1020 30.12 849 25.07 1.6 34.9 92 0.4 32.7
20:20 1020 30.12 849 25.07 1.7 35 91 0.4 32.6
20:25 1019 30.09 849 25.07 1.7 35 91 0.3 32.6
20:30 1019 30.09 849 25.07 1.4 34.6 91 0.1 32.2
20:35 1019 30.09 849 25.07 1.2 34.1 92 -0 31.9
20:40 1020 30.12 849 25.07 1.3 34.3 91 -0 31.9
20:45 1020 30.12 849 25.07 1.4 34.5 90 -0.1 31.8
20:50 1020 30.12 849 25.07 1.5 34.6 89 -0.2 31.6
20:55 1020 30.12 849 25.07 1.5 34.7 88 -0.3 31.5
21:00 1020 30.12 849 25.07 1.5 34.7 87 -0.3 31.4
21:05 1020 30.12 849 25.07 1.6 34.9 87 -0.4 31.3
21:10 1020 30.12 849 25.07 1.7 35 86 -0.4 31.2
21:15 1020 30.12 849 25.07 1.7 35.1 86 -0.5 31.2
21:20 1020 30.12 849 25.07 1.7 35.1 86 -0.4 31.3
21:25 1020 30.12 849 25.07 1.8 35.2 85 -0.5 31.1
21:30 1020 30.12 849 25.07 2 35.6 82 -0.8 30.6
21:35 1020 30.12 849 25.07 2.2 35.9 80 -0.9 30.4
21:40 1020 30.12 849 25.07 2.3 36.1 79 -1 30.2
21:45 1020 30.12 849 25.07 2.3 36.2 79 -0.9 30.3
21:50 1020 30.12 849 25.07 2.3 36.1 79 -1 30.2
21:55 1020 30.12 849 25.07 2.1 35.9 79 -1.1 29.9
22:00 1020 30.12 849 25.07 2.1 35.9 77 -1.5 29.4
22:05 1020 30.12 849 25.07 2.1 35.9 77 -1.5 29.2
22:10 1020 30.12 849 25.07 2.1 35.8 76 -1.7 28.9
22:15 1020 30.12 849 25.07 2.2 35.9 77 -1.5 29.3
22:20 1020 30.12 849 25.07 2.1 35.8 77 -1.4 29.5
22:25 1020 30.12 849 25.07 2.1 35.8 77 -1.5 29.4
22:30 1020 30.12 849 25.07 2.1 35.7 77 -1.5 29.3
22:35 1020 30.12 849 25.07 2.1 35.7 76 -1.7 28.9
22:40 1020 30.12 849 25.07 2.1 35.7 74 -2 28.3
22:45 1020 30.12 849 25.07 2.1 35.8 74 -2.1 28.2
22:50 1020 30.12 849 25.07 2.1 35.7 72 -2.5 27.4
22:55 1020 30.12 849 25.07 2 35.7 67 -3.4 25.9
23:00 1020 30.12 849 25.07 2 35.7 67 -3.5 25.6
23:05 1020 30.12 849 25.07 2 35.6 64 -4.1 24.6
23:10 1020 30.12 849 25.07 1.9 35.5 66 -3.8 25.2
23:15 1020 30.12 849 25.07 1.8 35.2 67 -3.8 25.2
23:20 1020 30.12 849 25.07 1.6 34.9 67 -3.9 25
23:25 1020 30.12 849 25.07 1.5 34.6 68 -3.8 25.1
23:30 1020 30.12 849 25.07 1.4 34.5 66 -4.3 24.3
23:35 1020 30.12 849 25.07 1.4 34.5 67 -4.1 24.7
23:40 1020 30.12 849 25.07 1.3 34.4 68 -4 24.8
23:45 1020 30.12 849 25.07 1.2 34.2 66 -4.4 24
23:50 1020 30.12 849 25.07 1.2 34.2 68 -4.1 24.5
23:55 1020 30.12 849 25.07 1.2 34.1 66 -4.4 24.1
24:00 1020 30.12 849 25.07 1.1 34 68 -4.2 24.5